Delta Virtual Airport Information Service

Bahrain International Airport

ICAO: OBBI Country: Bahrain
Latitude: 26.2708 Longitude: 50.6336
Latest Arrival : BAW124 (A) (OEDF-OBBI) Latest Departure : DLH637 (B) (OBBI-OERK)


WX CaptureLIVE
Data provided by noaa.gov | Fetched at 03:07:24

METAR : OBBI 300800Z 18008KT 120V210 9999 FEW025 36/22 Q1005 NOSIG

TAF : OBBI 300500Z 3006/0112 12012KT CAVOK PROB30 TEMPO 3012/3015 10012G25KT 6000 NSC BECMG 0110/0112 04010KT


Runway Data for OBBI
Data provided by openaviationdata.com

Runway ID Mag Var Hdg Length Elevation Surface ILS Freq ILS Id ILS Slope
12L 2 120° 12976 ft 6 ft Asphalt 111.5 IBIB 3
12R 2 120° 8301 ft 6 ft Asphalt -- -- --
30L 2 300° 8301 ft 6 ft Asphalt -- -- --
30R 2 300° 12976 ft 6 ft Asphalt 110.3 IBIA 3

Bahrain International Airport, Bahrain
Use only for reference purposes



Not for navigational purposes.